createdAt,value
2018-01-14T00:00:58.214Z,-0.23
2018-01-14T00:03:25.834Z,-0.20
2018-01-14T00:05:53.394Z,-0.34
2018-01-14T00:08:21.006Z,-0.32
2018-01-14T00:10:48.578Z,-0.34
2018-01-14T00:13:16.277Z,-0.29
2018-01-14T00:15:43.951Z,-0.36
2018-01-14T00:18:11.598Z,-0.41
2018-01-14T00:20:39.166Z,-0.40
2018-01-14T00:23:06.772Z,-0.41
2018-01-14T00:25:34.354Z,-0.41
2018-01-14T00:28:01.976Z,-0.45
2018-01-14T00:30:29.955Z,-0.41
2018-01-14T00:32:57.573Z,-0.42
2018-01-14T00:35:25.287Z,-0.36
2018-01-14T00:37:52.899Z,-0.26
2018-01-14T00:40:20.476Z,-0.42
2018-01-14T00:42:48.085Z,-0.29
2018-01-14T00:45:15.766Z,-0.21
2018-01-14T00:47:43.346Z,-0.24
2018-01-14T00:50:11.010Z,-0.26
2018-01-14T00:52:38.629Z,-0.30
2018-01-14T00:55:06.214Z,-0.28
2018-01-14T00:57:33.793Z,-0.22
2018-01-14T01:00:01.408Z,-0.13
2018-01-14T01:02:29.020Z,-0.14
2018-01-14T01:04:56.592Z,-0.13
2018-01-14T01:07:24.233Z,-0.12
2018-01-14T01:09:51.817Z,-0.18
2018-01-14T01:12:19.554Z,-0.18
2018-01-14T01:14:47.210Z,-0.17
2018-01-14T01:17:14.789Z,-0.14
2018-01-14T01:19:42.547Z,-0.17
2018-01-14T01:22:10.144Z,-0.18
2018-01-14T01:24:37.867Z,-0.23
2018-01-14T01:27:05.430Z,-0.24
2018-01-14T01:29:33.044Z,-0.26
2018-01-14T01:32:00.614Z,-0.24
2018-01-14T01:34:28.181Z,-0.30
2018-01-14T01:36:55.848Z,-0.38
2018-01-14T01:39:23.399Z,-0.26
2018-01-14T01:41:50.962Z,-0.28
2018-01-14T01:44:18.572Z,-0.19
2018-01-14T01:46:46.141Z,-0.16
2018-01-14T01:49:13.693Z,-0.15
2018-01-14T01:51:41.322Z,-0.10
2018-01-14T01:54:08.889Z,-0.34
2018-01-14T01:56:36.670Z,-0.34
2018-01-14T01:59:04.289Z,-0.32
2018-01-14T02:01:31.859Z,-0.29
2018-01-14T02:03:59.430Z,-0.31
2018-01-14T02:06:27.087Z,-0.28
2018-01-14T02:08:54.652Z,-0.20
2018-01-14T02:11:22.214Z,-0.28
2018-01-14T02:13:49.836Z,-0.21
2018-01-14T02:16:17.540Z,-0.17
2018-01-14T02:18:45.102Z,-0.20
2018-01-14T02:21:12.728Z,-0.19
2018-01-14T02:23:40.303Z,-0.24
2018-01-14T02:26:07.982Z,-0.18
2018-01-14T02:28:35.648Z,-0.08
2018-01-14T02:31:03.324Z,-0.15
2018-01-14T02:33:30.987Z,-0.15
2018-01-14T02:35:58.597Z,-0.22
2018-01-14T02:38:26.167Z,-0.08
2018-01-14T02:40:53.727Z,-0.20
2018-01-14T02:43:21.331Z,-0.13
2018-01-14T02:45:48.913Z,-0.16
2018-01-14T02:48:16.491Z,-0.16
2018-01-14T02:50:44.097Z,-0.13
2018-01-14T02:53:11.647Z,-0.14
2018-01-14T02:55:39.230Z,-0.09
2018-01-14T02:58:06.843Z,-0.28
2018-01-14T03:00:34.415Z,-0.32
2018-01-14T03:03:01.993Z,-0.21
2018-01-14T03:05:29.590Z,-0.37
2018-01-14T03:07:57.151Z,-0.58
2018-01-14T03:10:24.712Z,-0.53
2018-01-14T03:12:52.316Z,-0.63
2018-01-14T03:15:20.012Z,-0.74
2018-01-14T03:17:47.656Z,-0.73
2018-01-14T03:20:15.278Z,-0.71
2018-01-14T03:22:42.860Z,-0.67
2018-01-14T03:25:10.489Z,-0.61
2018-01-14T03:27:38.306Z,-0.58
2018-01-14T03:30:05.986Z,-0.55
2018-01-14T03:32:33.577Z,-0.53
2018-01-14T03:35:01.407Z,-0.46
2018-01-14T03:37:28.987Z,-0.38
2018-01-14T03:39:56.559Z,-0.42
2018-01-14T03:42:24.297Z,-0.38
2018-01-14T03:44:51.879Z,-0.30
2018-01-14T03:47:19.449Z,-0.29
2018-01-14T03:49:47.064Z,-0.36
2018-01-14T03:52:14.739Z,-0.30
2018-01-14T03:54:42.419Z,-0.35
2018-01-14T03:57:10.023Z,-0.27
2018-01-14T03:59:37.610Z,-0.25
2018-01-14T04:02:05.380Z,-0.29
2018-01-14T04:04:33.004Z,-0.28
2018-01-14T04:07:00.592Z,-0.49
2018-01-14T04:09:28.164Z,-0.42
2018-01-14T04:11:55.825Z,-0.42
2018-01-14T04:14:23.499Z,-0.36
2018-01-14T04:16:51.075Z,-0.34
2018-01-14T04:19:20.655Z,-0.35
2018-01-14T04:21:48.227Z,-0.33
2018-01-14T04:24:15.798Z,-0.30
2018-01-14T04:26:43.411Z,-0.27
2018-01-14T04:29:11.102Z,-0.23
2018-01-14T04:31:38.684Z,-0.18
2018-01-14T04:34:06.419Z,-0.12
2018-01-14T04:36:34.011Z,-0.20
2018-01-14T04:39:01.596Z,-0.19
2018-01-14T04:41:29.213Z,-0.11
2018-01-14T04:43:56.875Z,-0.15
2018-01-14T04:46:24.429Z,-0.36
2018-01-14T04:48:52.048Z,-0.30
2018-01-14T04:51:19.662Z,-0.32
2018-01-14T04:53:47.234Z,-0.21
2018-01-14T04:56:14.842Z,-0.29
2018-01-14T04:58:42.419Z,-0.25
2018-01-14T05:01:10.100Z,-0.36
2018-01-14T05:03:37.724Z,-0.31
2018-01-14T05:06:05.306Z,-0.33
2018-01-14T05:08:32.865Z,-0.11
2018-01-14T05:11:00.525Z,-0.07
2018-01-14T05:13:28.111Z,-0.09
2018-01-14T05:15:55.701Z,-0.10
2018-01-14T05:18:23.330Z,-0.05
2018-01-14T05:20:50.897Z,0.03
2018-01-14T05:23:18.646Z,0.02
2018-01-14T05:25:46.265Z,-0.09
2018-01-14T05:28:13.864Z,-0.04
2018-01-14T05:30:41.440Z,-0.18
2018-01-14T05:33:09.059Z,-0.09
2018-01-14T05:35:36.633Z,-0.13
2018-01-14T05:38:04.218Z,-0.13
2018-01-14T05:40:31.871Z,-0.25
2018-01-14T05:42:59.441Z,-0.17
2018-01-14T05:45:27.023Z,-0.05
2018-01-14T05:47:54.635Z,-0.02
2018-01-14T05:50:22.207Z,-0.05
2018-01-14T05:52:49.802Z,0.03
2018-01-14T05:55:17.433Z,-0.09
2018-01-14T05:57:45.107Z,-0.18
2018-01-14T06:00:12.772Z,0.07
2018-01-14T06:02:40.433Z,0.07
2018-01-14T06:05:08.002Z,0.13
2018-01-14T06:07:35.744Z,0.19
2018-01-14T06:10:03.422Z,0.21
2018-01-14T06:12:31.061Z,0.16
2018-01-14T06:14:58.729Z,0.02
2018-01-14T06:17:26.322Z,0.00
2018-01-14T06:19:53.889Z,0.03
2018-01-14T06:22:21.464Z,0.07
2018-01-14T06:24:49.066Z,-0.05
2018-01-14T06:27:16.839Z,-0.05
2018-01-14T06:29:44.403Z,-0.07
2018-01-14T06:32:12.156Z,-0.01
2018-01-14T06:34:39.746Z,-0.12
2018-01-14T06:37:07.303Z,-0.06
2018-01-14T06:39:34.920Z,-0.10
2018-01-14T06:42:02.631Z,-0.24
2018-01-14T06:44:30.253Z,-0.26
2018-01-14T06:46:57.943Z,-0.21
2018-01-14T06:49:25.553Z,-0.24
2018-01-14T06:51:53.124Z,-0.17
2018-01-14T06:54:20.742Z,-0.21
2018-01-14T06:56:48.306Z,-0.14
2018-01-14T06:59:15.861Z,-0.15
2018-01-14T07:01:43.605Z,-0.12
2018-01-14T07:04:11.169Z,-0.04
2018-01-14T07:06:38.759Z,-0.11
2018-01-14T07:09:06.381Z,-0.15
2018-01-14T07:11:33.925Z,-0.17
2018-01-14T07:14:01.486Z,-0.25
2018-01-14T07:16:29.082Z,-0.28
2018-01-14T07:18:56.654Z,-0.28
2018-01-14T07:21:24.230Z,-0.25
2018-01-14T07:23:51.818Z,-0.29
2018-01-14T07:26:19.495Z,-0.26
2018-01-14T07:28:47.164Z,-0.26
2018-01-14T07:31:14.768Z,-0.25
2018-01-14T07:33:42.504Z,-0.18
2018-01-14T07:36:10.061Z,-0.29
2018-01-14T07:38:37.658Z,-0.22
2018-01-14T07:41:05.284Z,-0.24
2018-01-14T07:43:32.928Z,-0.29
2018-01-14T07:46:00.600Z,-0.20
2018-01-14T07:48:28.162Z,-0.18
2018-01-14T07:50:55.752Z,-0.35
2018-01-14T07:53:23.390Z,-0.38
2018-01-14T07:55:50.965Z,-0.18
2018-01-14T07:58:18.545Z,-0.03
2018-01-14T08:00:46.160Z,-0.14
2018-01-14T08:03:13.818Z,0.02
2018-01-14T08:05:41.499Z,0.33
2018-01-14T08:08:09.165Z,0.37
2018-01-14T08:10:36.796Z,0.47
2018-01-14T08:13:04.359Z,0.52
2018-01-14T08:15:31.952Z,0.47
2018-01-14T08:17:59.518Z,0.50
2018-01-14T08:20:27.088Z,0.62
2018-01-14T08:22:54.683Z,0.58
2018-01-14T08:25:22.381Z,0.75
2018-01-14T08:27:50.050Z,0.89
2018-01-14T08:30:17.642Z,0.95
2018-01-14T08:32:45.202Z,1.06
2018-01-14T08:35:12.772Z,1.20
2018-01-14T08:37:40.418Z,1.26
2018-01-14T08:40:07.998Z,1.20
2018-01-14T08:42:35.572Z,1.20
2018-01-14T08:45:03.275Z,1.34
2018-01-14T08:47:30.937Z,1.25
2018-01-14T08:49:58.499Z,1.25
2018-01-14T08:52:26.247Z,1.27
2018-01-14T08:54:53.810Z,0.97
2018-01-14T08:57:21.588Z,0.97
2018-01-14T08:59:49.222Z,0.96
2018-01-14T09:02:16.792Z,1.21
2018-01-14T09:04:44.557Z,1.30
2018-01-14T09:07:12.226Z,1.84
2018-01-14T09:09:39.796Z,1.98
2018-01-14T09:12:07.425Z,2.22
2018-01-14T09:14:35.037Z,2.41
2018-01-14T09:17:02.718Z,1.60
2018-01-14T09:19:30.287Z,1.56
2018-01-14T09:21:57.987Z,1.48
2018-01-14T09:24:25.648Z,1.82
2018-01-14T09:26:53.240Z,2.08
2018-01-14T09:29:20.887Z,2.46
2018-01-14T09:31:48.452Z,2.56
2018-01-14T09:34:16.016Z,2.68
2018-01-14T09:36:43.763Z,2.49
2018-01-14T09:39:11.430Z,2.75
2018-01-14T09:41:39.000Z,2.77
2018-01-14T09:44:06.612Z,2.40
2018-01-14T09:46:34.191Z,2.64
2018-01-14T09:49:01.776Z,2.43
2018-01-14T09:51:29.382Z,2.44
2018-01-14T09:53:56.963Z,2.63
2018-01-14T09:56:24.553Z,2.93
2018-01-14T09:58:52.184Z,3.21
2018-01-14T10:01:19.768Z,3.24
2018-01-14T10:03:47.360Z,3.68
2018-01-14T10:06:14.972Z,3.69
2018-01-14T10:08:42.544Z,4.50
2018-01-14T10:11:10.114Z,4.56
2018-01-14T10:13:37.715Z,4.59
2018-01-14T10:16:05.280Z,4.12
2018-01-14T10:18:32.837Z,4.98
2018-01-14T10:21:00.426Z,5.16
2018-01-14T10:23:27.986Z,5.66
2018-01-14T10:25:55.613Z,6.04
2018-01-14T10:28:23.205Z,5.89
2018-01-14T10:30:50.797Z,5.51
2018-01-14T10:33:18.362Z,5.38
2018-01-14T10:35:45.964Z,5.50
2018-01-14T10:38:13.675Z,4.90
2018-01-14T10:40:41.251Z,4.38
2018-01-14T10:43:08.874Z,3.92
2018-01-14T10:45:36.503Z,3.84
2018-01-14T10:48:04.065Z,3.47
2018-01-14T10:50:31.685Z,3.60
2018-01-14T10:53:00.174Z,3.32
2018-01-14T10:55:27.742Z,3.29
2018-01-14T10:57:55.368Z,3.07
2018-01-14T11:00:22.967Z,3.12
2018-01-14T11:02:50.542Z,3.15
2018-01-14T11:05:18.131Z,3.40
2018-01-14T11:07:45.703Z,3.44
2018-01-14T11:10:13.273Z,3.57
2018-01-14T11:12:40.906Z,2.87
2018-01-14T11:15:08.475Z,3.30
2018-01-14T11:17:36.119Z,3.46
2018-01-14T11:20:03.755Z,3.32
2018-01-14T11:22:31.441Z,3.84
2018-01-14T11:24:59.016Z,4.03
2018-01-14T11:27:26.598Z,4.45
2018-01-14T11:30:00.760Z,4.30
2018-01-14T11:32:28.406Z,3.66
2018-01-14T11:34:55.973Z,3.43
2018-01-14T11:37:23.553Z,3.43
2018-01-14T11:39:51.170Z,2.98
2018-01-14T11:42:18.734Z,2.80
2018-01-14T11:44:46.306Z,3.29
2018-01-14T11:47:13.923Z,4.12
2018-01-14T11:49:41.470Z,5.33
2018-01-14T11:52:09.033Z,5.70
2018-01-14T11:54:36.632Z,4.65
2018-01-14T11:57:04.241Z,3.88
2018-01-14T11:59:31.799Z,3.84
2018-01-14T12:01:59.363Z,3.62
2018-01-14T12:04:26.940Z,3.28
2018-01-14T12:06:54.503Z,3.26
2018-01-14T12:09:22.100Z,3.31
2018-01-14T12:11:49.650Z,3.19
2018-01-14T12:14:17.251Z,2.99
2018-01-14T12:16:44.853Z,2.80
2018-01-14T12:19:12.482Z,2.99
2018-01-14T12:21:40.050Z,2.91
2018-01-14T12:24:07.639Z,2.75
2018-01-14T12:26:35.214Z,2.94
2018-01-14T12:29:02.766Z,3.16
2018-01-14T12:31:30.380Z,2.50
2018-01-14T12:37:08.952Z,1.79
2018-01-14T12:39:36.505Z,1.73
2018-01-14T12:42:04.299Z,1.36
2018-01-14T12:44:31.924Z,1.05
2018-01-14T12:46:59.479Z,0.98
2018-01-14T12:49:27.103Z,1.16
2018-01-14T12:51:54.841Z,1.11
2018-01-14T12:54:22.468Z,1.22
2018-01-14T12:56:50.025Z,1.30
2018-01-14T12:59:17.604Z,1.27
2018-01-14T13:01:45.216Z,1.28
2018-01-14T13:04:12.776Z,0.97
2018-01-14T13:06:40.365Z,1.01
2018-01-14T13:09:07.901Z,0.97
2018-01-14T13:11:35.448Z,1.03
2018-01-14T13:14:03.313Z,1.05
2018-01-14T13:16:30.873Z,0.89
2018-01-14T13:18:58.427Z,0.89
2018-01-14T13:21:26.008Z,0.91
2018-01-14T13:23:53.561Z,0.83
2018-01-14T13:26:21.118Z,0.76
2018-01-14T13:28:48.713Z,0.80
2018-01-14T13:31:16.281Z,0.78
2018-01-14T13:33:43.873Z,0.68
2018-01-14T13:36:11.611Z,0.58
2018-01-14T13:38:39.163Z,0.57
2018-01-14T13:41:06.763Z,0.57
2018-01-14T13:43:34.372Z,0.50
2018-01-14T13:46:01.926Z,0.43
2018-01-14T13:48:29.484Z,0.62
2018-01-14T13:50:57.088Z,0.62
2018-01-14T13:53:24.653Z,0.59
2018-01-14T13:55:52.215Z,0.39
2018-01-14T13:58:19.807Z,0.29
2018-01-14T14:00:47.394Z,0.54
2018-01-14T14:03:15.038Z,0.46
2018-01-14T14:05:42.638Z,0.37
2018-01-14T14:08:10.187Z,0.36
2018-01-14T14:10:37.831Z,0.30
2018-01-14T14:13:05.448Z,0.25
2018-01-14T14:15:33.006Z,0.26
2018-01-14T14:18:00.635Z,0.18
2018-01-14T14:20:28.252Z,0.09
2018-01-14T14:22:55.821Z,0.09
2018-01-14T14:25:23.470Z,-0.02
2018-01-14T14:27:51.087Z,-0.11
2018-01-14T14:30:18.654Z,-0.16
2018-01-14T14:32:46.259Z,-0.17
2018-01-14T14:35:13.828Z,-0.19
2018-01-14T14:37:41.390Z,-0.15
2018-01-14T14:40:09.030Z,-0.18
2018-01-14T14:42:36.611Z,-0.27
2018-01-14T14:45:04.194Z,-0.28
2018-01-14T14:47:31.790Z,-0.27
2018-01-14T14:49:59.368Z,-0.41
2018-01-14T14:52:26.934Z,-0.50
2018-01-14T14:54:54.541Z,-0.44
2018-01-14T14:57:22.266Z,-0.44
2018-01-14T14:59:49.825Z,-0.41
2018-01-14T15:02:17.407Z,-0.44
2018-01-14T15:04:44.964Z,-0.42
2018-01-14T15:07:12.527Z,-0.58
2018-01-14T15:09:40.148Z,-0.68
2018-01-14T15:12:07.728Z,-0.64
2018-01-14T15:14:35.282Z,-0.65
2018-01-14T15:17:02.899Z,-0.66
2018-01-14T15:19:30.466Z,-0.48
2018-01-14T15:21:58.034Z,-0.45
2018-01-14T15:24:25.626Z,-0.46
2018-01-14T15:26:53.197Z,-0.67
2018-01-14T15:29:20.755Z,-0.58
2018-01-14T15:31:48.399Z,-0.69
2018-01-14T15:34:15.976Z,-0.65
2018-01-14T15:36:43.543Z,-0.67
2018-01-14T15:39:11.152Z,-0.71
2018-01-14T15:41:38.732Z,-0.69
2018-01-14T15:44:06.313Z,-0.74
2018-01-14T15:46:33.911Z,-0.74
2018-01-14T15:49:01.481Z,-0.83
2018-01-14T15:51:29.132Z,-0.88
2018-01-14T15:53:56.767Z,-0.85
2018-01-14T15:56:24.326Z,-0.88
2018-01-14T15:58:51.911Z,-0.96
2018-01-14T16:01:19.542Z,-0.96
2018-01-14T16:03:47.115Z,-0.94
2018-01-14T16:06:14.689Z,-0.94
2018-01-14T16:08:42.370Z,-0.98
2018-01-14T16:11:09.985Z,-0.89
2018-01-14T16:13:37.560Z,-0.99
2018-01-14T16:16:05.511Z,-0.98
2018-01-14T16:18:33.130Z,-1.10
2018-01-14T16:21:00.751Z,-1.20
2018-01-14T16:23:28.306Z,-1.07
2018-01-14T16:25:56.028Z,-1.02
2018-01-14T16:28:23.650Z,-1.16
2018-01-14T16:30:51.226Z,-1.03
2018-01-14T16:33:18.836Z,-1.15
2018-01-14T16:35:46.869Z,-1.16
2018-01-14T16:38:14.439Z,-1.25
2018-01-14T16:40:42.048Z,-1.15
2018-01-14T16:43:09.633Z,-1.19
2018-01-14T16:45:37.230Z,-1.22
2018-01-14T16:48:04.836Z,-1.35
2018-01-14T16:50:32.424Z,-1.34
2018-01-14T16:53:00.021Z,-1.26
2018-01-14T16:55:27.650Z,-1.33
2018-01-14T16:57:55.236Z,-1.31
2018-01-14T17:00:22.871Z,-1.31
2018-01-14T17:05:24.830Z,-1.42
2018-01-14T17:07:52.425Z,-1.31
2018-01-14T17:10:20.124Z,-1.22
2018-01-14T17:12:47.777Z,-1.14
2018-01-14T17:15:15.397Z,-1.11
2018-01-14T17:17:42.942Z,-1.08
2018-01-14T17:20:10.526Z,-1.17
2018-01-14T17:22:38.093Z,-1.21
2018-01-14T17:25:05.698Z,-1.31
2018-01-14T17:27:33.299Z,-1.20
2018-01-14T17:30:00.876Z,-1.09
2018-01-14T17:32:28.491Z,-1.09
2018-01-14T17:34:56.093Z,-1.06
2018-01-14T17:37:23.654Z,-1.02
2018-01-14T17:39:51.252Z,-1.03
2018-01-14T17:42:19.085Z,-1.03
2018-01-14T17:44:46.661Z,-1.07
2018-01-14T17:47:14.407Z,-0.99
2018-01-14T17:49:43.688Z,-1.12
2018-01-14T17:52:11.327Z,-1.14
2018-01-14T17:54:43.820Z,-1.15
2018-01-14T17:57:11.811Z,-1.15
2018-01-14T17:59:39.373Z,-1.09
2018-01-14T18:02:06.973Z,-1.21
2018-01-14T18:04:34.599Z,-1.15
2018-01-14T18:07:02.169Z,-1.21
2018-01-14T18:09:29.721Z,-1.14
2018-01-14T18:11:57.415Z,-1.25
2018-01-14T18:14:24.989Z,-1.09
2018-01-14T18:17:00.519Z,-1.07
2018-01-14T18:19:28.092Z,-1.07
2018-01-14T18:21:55.674Z,-1.14
2018-01-14T18:24:23.278Z,-1.08
2018-01-14T18:26:50.860Z,-1.09
2018-01-14T18:29:18.423Z,-1.07
2018-01-14T18:31:46.030Z,-1.13
2018-01-14T18:34:13.601Z,-1.19
2018-01-14T18:36:41.177Z,-1.17
2018-01-14T18:39:08.822Z,-1.23
2018-01-14T18:41:36.382Z,-1.14
2018-01-14T18:44:03.972Z,-1.24
2018-01-14T18:46:31.578Z,-1.18
2018-01-14T18:48:59.143Z,-1.19
2018-01-14T18:51:26.710Z,-1.14
2018-01-14T18:53:54.416Z,-1.25
2018-01-14T18:56:21.999Z,-1.25
2018-01-14T18:58:49.593Z,-1.38
2018-01-14T19:01:17.170Z,-1.30
2018-01-14T19:03:44.782Z,-1.27
2018-01-14T19:06:12.364Z,-1.31
2018-01-14T19:08:39.951Z,-1.33
2018-01-14T19:11:07.553Z,-1.35
2018-01-14T19:13:35.120Z,-1.37
2018-01-14T19:16:02.707Z,-1.42
2018-01-14T19:18:30.361Z,-1.36
2018-01-14T19:20:57.967Z,-1.29
2018-01-14T19:23:25.565Z,-1.24
2018-01-14T19:25:53.429Z,-1.32
2018-01-14T19:28:21.091Z,-1.26
2018-01-14T19:30:48.705Z,-1.31
2018-01-14T19:33:16.322Z,-1.42
2018-01-14T19:35:43.909Z,-1.38
2018-01-14T19:38:11.521Z,-1.42
2018-01-14T19:40:39.103Z,-1.43
2018-01-14T19:43:06.705Z,-1.36
2018-01-14T19:45:34.289Z,-1.34
2018-01-14T19:48:01.881Z,-1.24
2018-01-14T19:50:29.458Z,-1.27
2018-01-14T19:52:57.101Z,-1.34
2018-01-14T19:55:24.786Z,-1.31
2018-01-14T19:57:54.437Z,-1.35
2018-01-14T20:00:22.036Z,-1.25
2018-01-14T20:02:49.601Z,-1.35
2018-01-14T20:05:17.182Z,-1.37
2018-01-14T20:07:44.797Z,-1.29
2018-01-14T20:10:12.381Z,-1.23
2018-01-14T20:12:40.031Z,-1.20
2018-01-14T20:15:07.631Z,-1.16
2018-01-14T20:17:38.922Z,-1.21
2018-01-14T20:20:06.717Z,-1.22
2018-01-14T20:22:34.366Z,-1.19
2018-01-14T20:25:01.981Z,-1.30
2018-01-14T20:27:29.570Z,-1.15
2018-01-14T20:29:57.144Z,-1.23
2018-01-14T20:32:24.791Z,-1.25
2018-01-14T20:34:52.351Z,-1.20
2018-01-14T20:37:21.674Z,-1.32
2018-01-14T20:39:49.288Z,-1.28
2018-01-14T20:42:16.885Z,-1.18
2018-01-14T20:44:50.258Z,-1.17
2018-01-14T20:47:18.170Z,-1.15
2018-01-14T20:49:46.215Z,-1.09
2018-01-14T20:52:13.848Z,-1.14
2018-01-14T20:54:41.414Z,-1.23
2018-01-14T20:57:09.037Z,-1.35
2018-01-14T20:59:37.404Z,-1.37
2018-01-14T21:02:04.989Z,-1.25
2018-01-14T21:04:32.574Z,-1.19
2018-01-14T21:07:00.224Z,-1.23
2018-01-14T21:09:27.838Z,-1.37
2018-01-14T21:11:55.404Z,-1.30
2018-01-14T21:14:23.036Z,-1.36
2018-01-14T21:16:50.615Z,-1.41
2018-01-14T21:19:18.185Z,-1.42
2018-01-14T21:21:45.807Z,-1.41
2018-01-14T21:24:13.376Z,-1.60
2018-01-14T21:26:40.958Z,-1.57
2018-01-14T21:29:08.568Z,-1.57
2018-01-14T21:31:36.140Z,-1.67
2018-01-14T21:34:03.752Z,-1.69
2018-01-14T21:36:31.371Z,-1.67
2018-01-14T21:38:58.965Z,-1.60
2018-01-14T21:41:26.555Z,-1.50
2018-01-14T21:43:54.268Z,-1.59
2018-01-14T21:46:21.837Z,-1.55
2018-01-14T21:48:49.405Z,-1.59
2018-01-14T21:51:17.012Z,-1.48
2018-01-14T21:53:44.594Z,-1.55
2018-01-14T21:56:12.179Z,-1.58
2018-01-14T21:58:39.775Z,-1.59
2018-01-14T22:01:07.353Z,-1.55
2018-01-14T22:03:34.935Z,-1.45
2018-01-14T22:06:02.557Z,-1.37
2018-01-14T22:08:30.146Z,-1.36
2018-01-14T22:10:57.733Z,-1.27
2018-01-14T22:13:25.347Z,-1.30
2018-01-14T22:15:52.934Z,-1.27
2018-01-14T22:18:20.526Z,-1.27
2018-01-14T22:20:48.136Z,-1.32
2018-01-14T22:23:15.696Z,-1.30
2018-01-14T22:25:43.324Z,-1.26
2018-01-14T22:28:10.944Z,-1.27
2018-01-14T22:30:38.515Z,-1.38
2018-01-14T22:33:06.090Z,-1.40
2018-01-14T22:35:33.722Z,-1.39
2018-01-14T22:38:01.312Z,-1.42
2018-01-14T22:40:28.896Z,-1.45
2018-01-14T22:42:56.577Z,-1.30
2018-01-14T22:45:24.159Z,-1.34
2018-01-14T22:47:51.754Z,-1.41
2018-01-14T22:50:19.378Z,-1.41
2018-01-14T22:52:46.998Z,-1.37
2018-01-14T22:55:14.580Z,-1.45
2018-01-14T22:57:42.208Z,-1.40
2018-01-14T23:00:09.969Z,-1.46
2018-01-14T23:02:37.533Z,-1.38
2018-01-14T23:05:05.153Z,-1.50
2018-01-14T23:07:32.736Z,-1.47
2018-01-14T23:10:00.317Z,-1.42
2018-01-14T23:12:27.949Z,-1.56
2018-01-14T23:15:01.019Z,-1.42
2018-01-14T23:17:28.632Z,-1.42
2018-01-14T23:19:56.203Z,-1.52
2018-01-14T23:22:23.763Z,-1.53
2018-01-14T23:24:51.377Z,-1.50
2018-01-14T23:27:18.947Z,-1.59
2018-01-14T23:29:46.521Z,-1.65
2018-01-14T23:32:14.118Z,-1.61
2018-01-14T23:34:41.713Z,-1.76
2018-01-14T23:37:09.287Z,-1.62
2018-01-14T23:39:36.896Z,-1.68
2018-01-14T23:42:04.481Z,-1.69
2018-01-14T23:44:32.128Z,-1.68
2018-01-14T23:46:59.734Z,-1.73
2018-01-14T23:49:27.349Z,-1.80
2018-01-14T23:51:54.918Z,-1.76
2018-01-14T23:54:22.545Z,-1.71
2018-01-14T23:56:50.120Z,-1.75
2018-01-14T23:59:17.700Z,-1.79
